sensor_id;sensor_type;location;lat;lon;timestamp;pressure;altitude;pressure_sealevel;temperature;humidity
48976;BME280;34791;52.752;8.346;2022-12-11T00:00:49;147526.72;;;0.32;100.00
48976;BME280;34791;52.752;8.346;2022-12-11T00:03:17;147529.28;;;0.33;100.00
48976;BME280;34791;52.752;8.346;2022-12-11T00:05:44;147529.28;;;0.33;100.00
48976;BME280;34791;52.752;8.346;2022-12-11T00:08:10;147536.97;;;0.36;100.00
48976;BME280;34791;52.752;8.346;2022-12-11T00:10:36;147534.41;;;0.35;100.00
48976;BME280;34791;52.752;8.346;2022-12-11T00:13:02;147542.13;;;0.38;100.00
48976;BME280;34791;52.752;8.346;2022-12-11T00:15:27;147542.13;;;0.38;100.00
48976;BME280;34791;52.752;8.346;2022-12-11T00:17:53;147539.56;;;0.37;100.00
48976;BME280;34791;52.752;8.346;2022-12-11T00:20:19;147547.25;;;0.40;100.00
48976;BME280;34791;52.752;8.346;2022-12-11T00:22:44;147536.97;;;0.36;100.00
48976;BME280;34791;52.752;8.346;2022-12-11T00:25:09;147554.97;;;0.43;100.00
48976;BME280;34791;52.752;8.346;2022-12-11T00:27:35;147560.09;;;0.45;100.00
48976;BME280;34791;52.752;8.346;2022-12-11T00:30:00;147565.22;;;0.47;100.00
48976;BME280;34791;52.752;8.346;2022-12-11T00:32:26;147562.66;;;0.46;100.00
48976;BME280;34791;52.752;8.346;2022-12-11T00:34:52;147548.53;;;0.41;100.00
48976;BME280;34791;52.752;8.346;2022-12-11T00:37:17;147547.25;;;0.40;100.00
48976;BME280;34791;52.752;8.346;2022-12-11T00:39:42;147545.97;;;0.40;100.00
48976;BME280;34791;52.752;8.346;2022-12-11T00:42:08;147545.97;;;0.40;100.00
48976;BME280;34791;52.752;8.346;2022-12-11T00:44:34;147548.53;;;0.41;100.00
48976;BME280;34791;52.752;8.346;2022-12-11T00:46:59;147536.97;;;0.36;100.00
48976;BME280;34791;52.752;8.346;2022-12-11T00:49:24;147542.13;;;0.38;100.00
48976;BME280;34791;52.752;8.346;2022-12-11T00:51:50;147529.28;;;0.33;100.00
48976;BME280;34791;52.752;8.346;2022-12-11T00:54:15;147536.97;;;0.36;100.00
48976;BME280;34791;52.752;8.346;2022-12-11T00:56:41;147536.97;;;0.36;100.00
48976;BME280;34791;52.752;8.346;2022-12-11T00:59:06;147540.84;;;0.38;100.00
48976;BME280;34791;52.752;8.346;2022-12-11T01:01:32;147535.69;;;0.36;100.00
48976;BME280;34791;52.752;8.346;2022-12-11T01:03:57;147526.72;;;0.32;100.00
48976;BME280;34791;52.752;8.346;2022-12-11T01:06:24;147529.28;;;0.33;100.00
48976;BME280;34791;52.752;8.346;2022-12-11T01:08:50;147510.06;;;0.25;100.00
48976;BME280;34791;52.752;8.346;2022-12-11T01:11:34;147512.63;;;0.26;100.00
48976;BME280;34791;52.752;8.346;2022-12-11T01:14:00;147515.19;;;0.27;100.00
48976;BME280;34791;52.752;8.346;2022-12-11T01:16:25;147515.19;;;0.27;100.00
48976;BME280;34791;52.752;8.346;2022-12-11T01:18:51;147516.47;;;0.28;100.00
48976;BME280;34791;52.752;8.346;2022-12-11T01:21:16;147519.03;;;0.29;100.00
48976;BME280;34791;52.752;8.346;2022-12-11T01:23:41;147521.59;;;0.30;100.00
48976;BME280;34791;52.752;8.346;2022-12-11T01:26:12;147519.03;;;0.29;100.00
48976;BME280;34791;52.752;8.346;2022-12-11T01:28:38;147521.59;;;0.30;100.00
48976;BME280;34791;52.752;8.346;2022-12-11T01:31:12;147522.88;;;0.31;100.00
48976;BME280;34791;52.752;8.346;2022-12-11T01:33:38;147515.19;;;0.27;100.00
48976;BME280;34791;52.752;8.346;2022-12-11T01:36:12;147513.91;;;0.27;100.00
48976;BME280;34791;52.752;8.346;2022-12-11T01:38:38;147522.88;;;0.31;100.00
48976;BME280;34791;52.752;8.346;2022-12-11T01:41:03;147521.59;;;0.30;100.00
48976;BME280;34791;52.752;8.346;2022-12-11T01:43:29;147524.16;;;0.31;100.00
48976;BME280;34791;52.752;8.346;2022-12-11T01:45:54;147521.59;;;0.30;100.00
48976;BME280;34791;52.752;8.346;2022-12-11T01:48:22;147504.88;;;0.23;100.00
48976;BME280;34791;52.752;8.346;2022-12-11T01:50:53;147517.75;;;0.28;100.00
48976;BME280;34791;52.752;8.346;2022-12-11T01:53:24;147521.59;;;0.30;100.00
48976;BME280;34791;52.752;8.346;2022-12-11T01:55:52;147524.16;;;0.31;100.00
48976;BME280;34791;52.752;8.346;2022-12-11T01:58:23;147536.97;;;0.36;100.00
48976;BME280;34791;52.752;8.346;2022-12-11T02:00:52;147534.41;;;0.35;100.00
48976;BME280;34791;52.752;8.346;2022-12-11T02:03:18;147551.09;;;0.42;100.00
48976;BME280;34791;52.752;8.346;2022-12-11T02:05:44;147551.09;;;0.42;100.00
48976;BME280;34791;52.752;8.346;2022-12-11T02:08:09;147543.41;;;0.39;100.00
48976;BME280;34791;52.752;8.346;2022-12-11T02:10:59;147549.81;;;0.41;100.00
48976;BME280;34791;52.752;8.346;2022-12-11T02:13:35;147542.13;;;0.38;100.00
48976;BME280;34791;52.752;8.346;2022-12-11T02:16:12;147544.69;;;0.39;100.00
48976;BME280;34791;52.752;8.346;2022-12-11T02:18:48;147560.09;;;0.45;100.00
48976;BME280;34791;52.752;8.346;2022-12-11T02:21:23;147554.97;;;0.43;100.00
48976;BME280;34791;52.752;8.346;2022-12-11T02:29:37;147549.81;;;0.41;100.00
48976;BME280;34791;52.752;8.346;2022-12-11T02:32:10;147542.13;;;0.38;100.00
48976;BME280;34791;52.752;8.346;2022-12-11T02:34:50;147547.25;;;0.40;100.00
48976;BME280;34791;52.752;8.346;2022-12-11T02:37:20;147549.81;;;0.41;100.00
48976;BME280;34791;52.752;8.346;2022-12-11T02:39:48;147552.38;;;0.42;100.00
48976;BME280;34791;52.752;8.346;2022-12-11T02:42:17;147551.09;;;0.42;100.00
48976;BME280;34791;52.752;8.346;2022-12-11T02:44:45;147548.53;;;0.41;100.00
48976;BME280;34791;52.752;8.346;2022-12-11T02:47:14;147552.38;;;0.42;100.00
48976;BME280;34791;52.752;8.346;2022-12-11T02:49:41;147544.69;;;0.39;100.00
48976;BME280;34791;52.752;8.346;2022-12-11T02:52:10;147548.53;;;0.41;100.00
48976;BME280;34791;52.752;8.346;2022-12-11T02:54:38;147562.66;;;0.46;100.00
48976;BME280;34791;52.752;8.346;2022-12-11T02:57:11;147557.53;;;0.44;100.00
48976;BME280;34791;52.752;8.346;2022-12-11T02:59:41;147549.81;;;0.41;100.00
48976;BME280;34791;52.752;8.346;2022-12-11T03:02:07;147547.25;;;0.40;100.00
48976;BME280;34791;52.752;8.346;2022-12-11T03:04:34;147544.69;;;0.39;100.00
48976;BME280;34791;52.752;8.346;2022-12-11T03:07:08;147547.25;;;0.40;100.00
48976;BME280;34791;52.752;8.346;2022-12-11T03:09:42;147544.69;;;0.39;100.00
48976;BME280;34791;52.752;8.346;2022-12-11T03:12:09;147549.81;;;0.41;100.00
48976;BME280;34791;52.752;8.346;2022-12-11T03:14:37;147536.97;;;0.36;100.00
48976;BME280;34791;52.752;8.346;2022-12-11T03:17:10;147547.25;;;0.40;100.00
48976;BME280;34791;52.752;8.346;2022-12-11T03:19:40;147529.28;;;0.33;100.00
48976;BME280;34791;52.752;8.346;2022-12-11T03:22:21;147513.91;;;0.27;100.00
48976;BME280;34791;52.752;8.346;2022-12-11T03:25:00;147507.50;;;0.24;100.00
48976;BME280;34791;52.752;8.346;2022-12-11T03:27:53;147490.78;;;0.18;100.00
48976;BME280;34791;52.752;8.346;2022-12-11T03:30:22;147504.88;;;0.23;100.00
48976;BME280;34791;52.752;8.346;2022-12-11T03:32:52;147493.34;;;0.19;100.00
48976;BME280;34791;52.752;8.346;2022-12-11T03:37:56;147471.53;;;0.10;100.00
48976;BME280;34791;52.752;8.346;2022-12-11T03:40:26;147483.09;;;0.15;100.00
48976;BME280;34791;52.752;8.346;2022-12-11T03:42:55;147462.56;;;0.07;100.00
48976;BME280;34791;52.752;8.346;2022-12-11T03:45:23;147457.44;;;0.05;100.00
48976;BME280;34791;52.752;8.346;2022-12-11T03:47:49;147447.19;;;0.01;100.00
48976;BME280;34791;52.752;8.346;2022-12-11T03:50:18;147451.03;;;0.02;100.00
48976;BME280;34791;52.752;8.346;2022-12-11T03:52:45;147454.88;;;0.04;100.00
48976;BME280;34791;52.752;8.346;2022-12-11T03:55:13;147467.69;;;0.09;100.00
48976;BME280;34791;52.752;8.346;2022-12-11T03:57:40;147444.56;;;-0.01;100.00
48976;BME280;34791;52.752;8.346;2022-12-11T04:00:11;147456.16;;;0.04;100.00
48976;BME280;34791;52.752;8.346;2022-12-11T04:02:38;147447.19;;;0.01;100.00
48976;BME280;34791;52.752;8.346;2022-12-11T04:05:04;147444.56;;;-0.01;100.00
48976;BME280;34791;52.752;8.346;2022-12-11T04:07:29;147457.44;;;0.05;100.00
48976;BME280;34791;52.752;8.346;2022-12-11T04:09:55;147463.84;;;0.07;100.00
48976;BME280;34791;52.752;8.346;2022-12-11T04:12:21;147447.19;;;0.01;100.00
48976;BME280;34791;52.752;8.346;2022-12-11T04:14:46;147449.75;;;0.02;100.00
48976;BME280;34791;52.752;8.346;2022-12-11T04:17:28;147452.31;;;0.03;100.00
48976;BME280;34791;52.752;8.346;2022-12-11T04:20:12;147462.56;;;0.07;100.00
48976;BME280;34791;52.752;8.346;2022-12-11T04:22:56;147458.72;;;0.05;100.00
48976;BME280;34791;52.752;8.346;2022-12-11T04:25:40;147456.16;;;0.04;100.00
48976;BME280;34791;52.752;8.346;2022-12-11T04:28:05;147457.44;;;0.05;100.00
48976;BME280;34791;52.752;8.346;2022-12-11T04:30:30;147462.56;;;0.07;100.00
48976;BME280;34791;52.752;8.346;2022-12-11T04:32:56;147431.75;;;-0.06;100.00
48976;BME280;34791;52.752;8.346;2022-12-11T04:35:21;147434.31;;;-0.05;100.00
48976;BME280;34791;52.752;8.346;2022-12-11T04:37:47;147431.75;;;-0.06;100.00
48976;BME280;34791;52.752;8.346;2022-12-11T04:40:15;147429.19;;;-0.07;100.00
48976;BME280;34791;52.752;8.346;2022-12-11T04:42:40;147429.19;;;-0.07;100.00
48976;BME280;34791;52.752;8.346;2022-12-11T04:45:06;147429.19;;;-0.07;100.00
48976;BME280;34791;52.752;8.346;2022-12-11T04:47:36;147411.22;;;-0.14;100.00
48976;BME280;34791;52.752;8.346;2022-12-11T04:50:04;147408.66;;;-0.15;100.00
48976;BME280;34791;52.752;8.346;2022-12-11T04:52:30;147427.94;;;-0.07;100.00
48976;BME280;34791;52.752;8.346;2022-12-11T04:54:55;147408.66;;;-0.15;100.00
48976;BME280;34791;52.752;8.346;2022-12-11T04:57:21;147393.28;;;-0.21;100.00
48976;BME280;34791;52.752;8.346;2022-12-11T04:59:46;147397.13;;;-0.19;100.00
48976;BME280;34791;52.752;8.346;2022-12-11T05:02:12;147406.09;;;-0.16;100.00
48976;BME280;34791;52.752;8.346;2022-12-11T05:04:38;147397.13;;;-0.19;100.00
48976;BME280;34791;52.752;8.346;2022-12-11T05:07:03;147383.00;;;-0.25;100.00
48976;BME280;34791;52.752;8.346;2022-12-11T05:09:29;147385.59;;;-0.24;100.00
48976;BME280;34791;52.752;8.346;2022-12-11T05:11:54;147371.47;;;-0.30;100.00
48976;BME280;34791;52.752;8.346;2022-12-11T05:14:20;147374.03;;;-0.28;100.00
48976;BME280;34791;52.752;8.346;2022-12-11T05:16:46;147388.16;;;-0.23;100.00
48976;BME280;34791;52.752;8.346;2022-12-11T05:19:11;147393.28;;;-0.21;100.00
48976;BME280;34791;52.752;8.346;2022-12-11T05:21:36;147408.66;;;-0.15;100.00
48976;BME280;34791;52.752;8.346;2022-12-11T05:24:02;147429.19;;;-0.07;100.00
48976;BME280;34791;52.752;8.346;2022-12-11T05:26:28;147408.66;;;-0.15;100.00
48976;BME280;34791;52.752;8.346;2022-12-11T05:28:53;147394.56;;;-0.20;100.00
48976;BME280;34791;52.752;8.346;2022-12-11T05:31:21;147362.50;;;-0.33;100.00
48976;BME280;34791;52.752;8.346;2022-12-11T05:33:47;147365.06;;;-0.32;100.00
48976;BME280;34791;52.752;8.346;2022-12-11T05:36:26;147366.34;;;-0.32;100.00
48976;BME280;34791;52.752;8.346;2022-12-11T05:38:52;147366.34;;;-0.32;100.00
48976;BME280;34791;52.752;8.346;2022-12-11T05:41:20;147359.94;;;-0.34;100.00
48976;BME280;34791;52.752;8.346;2022-12-11T05:43:46;147376.59;;;-0.27;100.00
48976;BME280;34791;52.752;8.346;2022-12-11T05:46:14;147363.78;;;-0.33;100.00
48976;BME280;34791;52.752;8.346;2022-12-11T05:48:41;147343.25;;;-0.41;100.00
48976;BME280;34791;52.752;8.346;2022-12-11T05:51:08;147359.94;;;-0.34;100.00
48976;BME280;34791;52.752;8.346;2022-12-11T05:53:35;147362.50;;;-0.33;100.00
48976;BME280;34791;52.752;8.346;2022-12-11T05:56:11;147372.75;;;-0.29;100.00
48976;BME280;34791;52.752;8.346;2022-12-11T05:58:37;147379.16;;;-0.26;100.00
48976;BME280;34791;52.752;8.346;2022-12-11T06:01:06;147350.94;;;-0.38;100.00
48976;BME280;34791;52.752;8.346;2022-12-11T06:03:32;147326.59;;;-0.47;100.00
48976;BME280;34791;52.752;8.346;2022-12-11T06:06:01;147334.28;;;-0.44;100.00
48976;BME280;34791;52.752;8.346;2022-12-11T06:08:27;147329.19;;;-0.46;100.00
48976;BME280;34791;52.752;8.346;2022-12-11T06:10:52;147345.81;;;-0.40;100.00
48976;BME280;34791;52.752;8.346;2022-12-11T06:13:17;147354.84;;;-0.36;100.00
48976;BME280;34791;52.752;8.346;2022-12-11T06:15:43;147377.88;;;-0.27;100.00
48976;BME280;34791;52.752;8.346;2022-12-11T06:18:08;147372.75;;;-0.29;100.00
48976;BME280;34791;52.752;8.346;2022-12-11T06:20:34;147377.88;;;-0.27;100.00
48976;BME280;34791;52.752;8.346;2022-12-11T06:23:00;147385.59;;;-0.24;100.00
48976;BME280;34791;52.752;8.346;2022-12-11T06:25:25;147384.28;;;-0.24;100.00
48976;BME280;34791;52.752;8.346;2022-12-11T06:27:51;147371.47;;;-0.30;100.00
48976;BME280;34791;52.752;8.346;2022-12-11T06:30:16;147381.72;;;-0.25;100.00
48976;BME280;34791;52.752;8.346;2022-12-11T06:32:42;147352.22;;;-0.37;100.00
48976;BME280;34791;52.752;8.346;2022-12-11T06:35:08;147338.13;;;-0.43;100.00
48976;BME280;34791;52.752;8.346;2022-12-11T06:37:35;147333.00;;;-0.45;100.00
48976;BME280;34791;52.752;8.346;2022-12-11T06:40:02;147325.31;;;-0.48;100.00
48976;BME280;34791;52.752;8.346;2022-12-11T06:42:30;147338.13;;;-0.43;100.00
48976;BME280;34791;52.752;8.346;2022-12-11T06:44:56;147347.09;;;-0.39;100.00
48976;BME280;34791;52.752;8.346;2022-12-11T06:47:25;147339.41;;;-0.42;100.00
48976;BME280;34791;52.752;8.346;2022-12-11T06:49:51;147339.41;;;-0.42;100.00
48976;BME280;34791;52.752;8.346;2022-12-11T06:52:16;147336.84;;;-0.43;100.00
48976;BME280;34791;52.752;8.346;2022-12-11T06:54:41;147341.97;;;-0.41;100.00
48976;BME280;34791;52.752;8.346;2022-12-11T06:57:08;147330.47;;;-0.46;100.00
48976;BME280;34791;52.752;8.346;2022-12-11T06:59:34;147352.22;;;-0.37;100.00
48976;BME280;34791;52.752;8.346;2022-12-11T07:01:59;147352.22;;;-0.37;100.00
48976;BME280;34791;52.752;8.346;2022-12-11T07:04:25;147352.22;;;-0.37;100.00
48976;BME280;34791;52.752;8.346;2022-12-11T07:06:52;147359.94;;;-0.34;100.00
48976;BME280;34791;52.752;8.346;2022-12-11T07:09:17;147344.53;;;-0.40;100.00
48976;BME280;34791;52.752;8.346;2022-12-11T07:11:43;147316.31;;;-0.51;100.00
48976;BME280;34791;52.752;8.346;2022-12-11T07:14:08;147329.19;;;-0.46;100.00
48976;BME280;34791;52.752;8.346;2022-12-11T07:16:34;147315.03;;;-0.52;100.00
48976;BME280;34791;52.752;8.346;2022-12-11T07:18:59;147336.84;;;-0.43;100.00
48976;BME280;34791;52.752;8.346;2022-12-11T07:21:24;147324.06;;;-0.48;100.00
48976;BME280;34791;52.752;8.346;2022-12-11T07:23:50;147334.28;;;-0.44;100.00
48976;BME280;34791;52.752;8.346;2022-12-11T07:26:19;147316.31;;;-0.51;100.00
48976;BME280;34791;52.752;8.346;2022-12-11T07:28:44;147359.94;;;-0.34;100.00
48976;BME280;34791;52.752;8.346;2022-12-11T07:31:13;147375.31;;;-0.28;100.00
48976;BME280;34791;52.752;8.346;2022-12-11T07:33:39;147368.91;;;-0.31;100.00
48976;BME280;34791;52.752;8.346;2022-12-11T07:36:07;147334.28;;;-0.44;100.00
48976;BME280;34791;52.752;8.346;2022-12-11T07:38:33;147344.53;;;-0.40;100.00
48976;BME280;34791;52.752;8.346;2022-12-11T07:41:03;147334.28;;;-0.44;100.00
48976;BME280;34791;52.752;8.346;2022-12-11T07:43:29;147354.84;;;-0.36;100.00
48976;BME280;34791;52.752;8.346;2022-12-11T07:46:10;147353.50;;;-0.37;100.00
48976;BME280;34791;52.752;8.346;2022-12-11T07:48:38;147318.88;;;-0.50;100.00
48976;BME280;34791;52.752;8.346;2022-12-11T07:53:33;147345.81;;;-0.40;100.00
48976;BME280;34791;52.752;8.346;2022-12-11T07:55:58;147318.88;;;-0.50;100.00
48976;BME280;34791;52.752;8.346;2022-12-11T07:58:24;147303.50;;;-0.56;100.00
48976;BME280;34791;52.752;8.346;2022-12-11T08:00:49;147321.44;;;-0.49;100.00
48976;BME280;34791;52.752;8.346;2022-12-11T08:03:14;147324.06;;;-0.48;100.00
48976;BME280;34791;52.752;8.346;2022-12-11T08:05:46;147336.84;;;-0.43;100.00
48976;BME280;34791;52.752;8.346;2022-12-11T08:08:12;147349.66;;;-0.38;100.00
48976;BME280;34791;52.752;8.346;2022-12-11T08:10:38;147349.66;;;-0.38;100.00
48976;BME280;34791;52.752;8.346;2022-12-11T08:13:03;147326.59;;;-0.47;100.00
48976;BME280;34791;52.752;8.346;2022-12-11T08:15:28;147366.34;;;-0.32;100.00
48976;BME280;34791;52.752;8.346;2022-12-11T08:17:54;147367.63;;;-0.31;100.00
48976;BME280;34791;52.752;8.346;2022-12-11T08:20:19;147359.94;;;-0.34;100.00
48976;BME280;34791;52.752;8.346;2022-12-11T08:22:45;147365.06;;;-0.32;100.00
48976;BME280;34791;52.752;8.346;2022-12-11T08:25:10;147376.59;;;-0.27;100.00
48976;BME280;34791;52.752;8.346;2022-12-11T08:27:35;147376.59;;;-0.27;100.00
48976;BME280;34791;52.752;8.346;2022-12-11T08:30:01;147339.41;;;-0.42;100.00
48976;BME280;34791;52.752;8.346;2022-12-11T08:32:26;147334.28;;;-0.44;100.00
48976;BME280;34791;52.752;8.346;2022-12-11T08:34:52;147362.50;;;-0.33;100.00
48976;BME280;34791;52.752;8.346;2022-12-11T08:37:17;147372.75;;;-0.29;100.00
48976;BME280;34791;52.752;8.346;2022-12-11T08:39:42;147388.16;;;-0.23;100.00
48976;BME280;34791;52.752;8.346;2022-12-11T08:42:09;147376.59;;;-0.27;100.00
48976;BME280;34791;52.752;8.346;2022-12-11T08:44:34;147362.50;;;-0.33;100.00
48976;BME280;34791;52.752;8.346;2022-12-11T08:46:59;147362.50;;;-0.33;100.00
48976;BME280;34791;52.752;8.346;2022-12-11T08:49:25;147367.63;;;-0.31;100.00
48976;BME280;34791;52.752;8.346;2022-12-11T08:51:50;147367.63;;;-0.31;100.00
48976;BME280;34791;52.752;8.346;2022-12-11T08:54:15;147374.03;;;-0.28;100.00
48976;BME280;34791;52.752;8.346;2022-12-11T08:56:41;147365.06;;;-0.32;100.00
48976;BME280;34791;52.752;8.346;2022-12-11T08:59:06;147408.66;;;-0.15;100.00
48976;BME280;34791;52.752;8.346;2022-12-11T09:01:32;147424.09;;;-0.09;100.00
48976;BME280;34791;52.752;8.346;2022-12-11T09:03:57;147429.19;;;-0.07;100.00
48976;BME280;34791;52.752;8.346;2022-12-11T09:06:25;147418.97;;;-0.11;100.00
48976;BME280;34791;52.752;8.346;2022-12-11T09:08:51;147416.41;;;-0.12;100.00
48976;BME280;34791;52.752;8.346;2022-12-11T09:11:19;147418.97;;;-0.11;100.00
48976;BME280;34791;52.752;8.346;2022-12-11T09:13:45;147445.91;;;0.00;100.00
48976;BME280;34791;52.752;8.346;2022-12-11T09:16:13;147422.81;;;-0.09;100.00
48976;BME280;34791;52.752;8.346;2022-12-11T09:18:40;147353.50;;;-0.37;100.00
48976;BME280;34791;52.752;8.346;2022-12-11T09:21:08;147380.44;;;-0.26;100.00
48976;BME280;34791;52.752;8.346;2022-12-11T09:23:34;147403.53;;;-0.17;100.00
48976;BME280;34791;52.752;8.346;2022-12-11T09:26:03;147357.38;;;-0.35;100.00
48976;BME280;34791;52.752;8.346;2022-12-11T09:28:30;147357.38;;;-0.35;100.00
48976;BME280;34791;52.752;8.346;2022-12-11T09:30:55;147406.09;;;-0.16;100.00
48976;BME280;34791;52.752;8.346;2022-12-11T09:33:21;147376.59;;;-0.27;100.00
48976;BME280;34791;52.752;8.346;2022-12-11T09:35:58;147379.16;;;-0.26;100.00
48976;BME280;34791;52.752;8.346;2022-12-11T09:38:24;147358.66;;;-0.35;100.00
48976;BME280;34791;52.752;8.346;2022-12-11T09:40:50;147390.72;;;-0.22;100.00
48976;BME280;34791;52.752;8.346;2022-12-11T09:43:45;147390.72;;;-0.22;100.00
48976;BME280;34791;52.752;8.346;2022-12-11T09:46:14;147363.78;;;-0.33;100.00
48976;BME280;34791;52.752;8.346;2022-12-11T09:48:47;147386.88;;;-0.23;100.00
48976;BME280;34791;52.752;8.346;2022-12-11T09:53:46;147357.38;;;-0.35;100.00
48976;BME280;34791;52.752;8.346;2022-12-11T09:59:01;147370.19;;;-0.30;100.00
48976;BME280;34791;52.752;8.346;2022-12-11T10:09:38;147381.72;;;-0.25;100.00
48976;BME280;34791;52.752;8.346;2022-12-11T10:17:41;147370.19;;;-0.30;100.00
48976;BME280;34791;52.752;8.346;2022-12-11T10:22:34;147324.06;;;-0.48;100.00
48976;BME280;34791;52.752;8.346;2022-12-11T10:25:03;147344.53;;;-0.40;100.00
48976;BME280;34791;52.752;8.346;2022-12-11T10:27:32;147395.84;;;-0.20;100.00
48976;BME280;34791;52.752;8.346;2022-12-11T10:30:12;147425.38;;;-0.08;100.00
48976;BME280;34791;52.752;8.346;2022-12-11T10:32:45;147424.09;;;-0.09;100.00
48976;BME280;34791;52.752;8.346;2022-12-11T10:35:19;147465.13;;;0.08;100.00
48976;BME280;34791;52.752;8.346;2022-12-11T10:37:45;147483.09;;;0.15;100.00
48976;BME280;34791;52.752;8.346;2022-12-11T10:40:11;147408.66;;;-0.15;100.00
48976;BME280;34791;52.752;8.346;2022-12-11T10:42:37;147388.16;;;-0.23;100.00
48976;BME280;34791;52.752;8.346;2022-12-11T10:45:04;147413.78;;;-0.13;100.00
48976;BME280;34791;52.752;8.346;2022-12-11T10:47:30;147454.88;;;0.04;100.00
48976;BME280;34791;52.752;8.346;2022-12-11T10:50:00;147416.41;;;-0.12;100.00
48976;BME280;34791;52.752;8.346;2022-12-11T10:52:32;147444.56;;;-0.01;100.00
48976;BME280;34791;52.752;8.346;2022-12-11T10:55:21;147406.09;;;-0.16;100.00
48976;BME280;34791;52.752;8.346;2022-12-11T10:57:54;147431.75;;;-0.06;100.00
48976;BME280;34791;52.752;8.346;2022-12-11T11:00:37;147462.56;;;0.07;100.00
48976;BME280;34791;52.752;8.346;2022-12-11T11:03:05;147492.06;;;0.18;100.00
48976;BME280;34791;52.752;8.346;2022-12-11T11:05:42;147456.16;;;0.04;100.00
48976;BME280;34791;52.752;8.346;2022-12-11T11:11:20;147426.66;;;-0.08;100.00
48976;BME280;34791;52.752;8.346;2022-12-11T11:13:46;147413.78;;;-0.13;100.00
48976;BME280;34791;52.752;8.346;2022-12-11T11:16:14;147404.81;;;-0.16;100.00
48976;BME280;34791;52.752;8.346;2022-12-11T11:18:50;147440.72;;;-0.02;100.00
48976;BME280;34791;52.752;8.346;2022-12-11T11:21:17;147445.91;;;0.00;100.00
48976;BME280;34791;52.752;8.346;2022-12-11T11:23:43;147444.56;;;-0.01;100.00
48976;BME280;34791;52.752;8.346;2022-12-11T11:26:10;147444.56;;;-0.01;100.00
48976;BME280;34791;52.752;8.346;2022-12-11T11:28:47;147421.53;;;-0.10;100.00
48976;BME280;34791;52.752;8.346;2022-12-11T11:31:14;147416.41;;;-0.12;100.00
48976;BME280;34791;52.752;8.346;2022-12-11T11:34:04;147398.41;;;-0.19;100.00
48976;BME280;34791;52.752;8.346;2022-12-11T11:36:33;147386.88;;;-0.23;100.00
48976;BME280;34791;52.752;8.346;2022-12-11T11:41:55;147392.00;;;-0.21;100.00
48976;BME280;34791;52.752;8.346;2022-12-11T11:45:00;147371.47;;;-0.30;100.00
48976;BME280;34791;52.752;8.346;2022-12-11T11:47:35;147372.75;;;-0.29;100.00
48976;BME280;34791;52.752;8.346;2022-12-11T11:50:14;147370.19;;;-0.30;100.00
48976;BME280;34791;52.752;8.346;2022-12-11T11:52:52;147338.13;;;-0.43;100.00
48976;BME280;34791;52.752;8.346;2022-12-11T11:58:06;147371.47;;;-0.30;100.00
48976;BME280;34791;52.752;8.346;2022-12-11T12:00:35;147404.81;;;-0.16;100.00
48976;BME280;34791;52.752;8.346;2022-12-11T12:03:08;147411.22;;;-0.14;100.00
48976;BME280;34791;52.752;8.346;2022-12-11T12:05:51;147442.00;;;-0.02;100.00
48976;BME280;34791;52.752;8.346;2022-12-11T12:10:58;147407.38;;;-0.15;100.00
48976;BME280;34791;52.752;8.346;2022-12-11T12:14:12;147393.28;;;-0.21;100.00
48976;BME280;34791;52.752;8.346;2022-12-11T12:17:14;147400.97;;;-0.18;100.00
48976;BME280;34791;52.752;8.346;2022-12-11T12:19:40;147406.09;;;-0.16;100.00
48976;BME280;34791;52.752;8.346;2022-12-11T12:22:25;147409.94;;;-0.14;100.00
48976;BME280;34791;52.752;8.346;2022-12-11T12:30:17;147388.16;;;-0.23;100.00
48976;BME280;34791;52.752;8.346;2022-12-11T12:35:26;147409.94;;;-0.14;100.00
48976;BME280;34791;52.752;8.346;2022-12-11T12:37:57;147408.66;;;-0.15;100.00
48976;BME280;34791;52.752;8.346;2022-12-11T12:48:35;147400.97;;;-0.18;100.00
48976;BME280;34791;52.752;8.346;2022-12-11T12:51:01;147395.84;;;-0.20;100.00
48976;BME280;34791;52.752;8.346;2022-12-11T12:53:30;147412.50;;;-0.13;100.00
48976;BME280;34791;52.752;8.346;2022-12-11T12:55:58;147403.53;;;-0.17;100.00
48976;BME280;34791;52.752;8.346;2022-12-11T13:01:15;147413.78;;;-0.13;100.00
48976;BME280;34791;52.752;8.346;2022-12-11T13:04:03;147424.09;;;-0.09;100.00
48976;BME280;34791;52.752;8.346;2022-12-11T13:06:36;147380.44;;;-0.26;100.00
48976;BME280;34791;52.752;8.346;2022-12-11T13:09:19;147385.59;;;-0.24;100.00
48976;BME280;34791;52.752;8.346;2022-12-11T13:11:46;147400.97;;;-0.18;100.00
48976;BME280;34791;52.752;8.346;2022-12-11T13:16:44;147477.97;;;0.13;100.00
48976;BME280;34791;52.752;8.346;2022-12-11T13:19:26;147483.09;;;0.15;100.00
48976;BME280;34791;52.752;8.346;2022-12-11T13:22:01;147457.44;;;0.05;100.00
48976;BME280;34791;52.752;8.346;2022-12-11T13:24:30;147467.69;;;0.09;100.00
48976;BME280;34791;52.752;8.346;2022-12-11T13:26:55;147467.69;;;0.09;100.00
48976;BME280;34791;52.752;8.346;2022-12-11T13:29:37;147433.03;;;-0.05;100.00
48976;BME280;34791;52.752;8.346;2022-12-11T13:34:40;147462.56;;;0.07;100.00
48976;BME280;34791;52.752;8.346;2022-12-11T13:39:46;147497.19;;;0.20;100.00
48976;BME280;34791;52.752;8.346;2022-12-11T13:42:34;147483.09;;;0.15;100.00
48976;BME280;34791;52.752;8.346;2022-12-11T13:45:00;147468.97;;;0.09;100.00
48976;BME280;34791;52.752;8.346;2022-12-11T13:47:27;147461.28;;;0.06;100.00
48976;BME280;34791;52.752;8.346;2022-12-11T13:50:21;147462.56;;;0.07;100.00
48976;BME280;34791;52.752;8.346;2022-12-11T13:52:55;147474.09;;;0.11;100.00
48976;BME280;34791;52.752;8.346;2022-12-11T13:55:29;147502.31;;;0.22;100.00
48976;BME280;34791;52.752;8.346;2022-12-11T13:57:55;147504.88;;;0.23;100.00
48976;BME280;34791;52.752;8.346;2022-12-11T14:00:23;147519.03;;;0.29;100.00
48976;BME280;34791;52.752;8.346;2022-12-11T14:02:50;147508.78;;;0.25;100.00